Time;durP1;ratioP1;P1;durP2;ratioP2;P2;SDS_P1;SDS_P2;PMS_P1;PMS_P2;Temp;Humidity;BMP_temperature;BMP_pressure;BME280_temperature;BME280_humidity;BME280_pressure;Samples;Min_cycle;Max_cycle;Signal;HPM_P1;HPM_P2
2023/12/28 00:00:03;;;;;;;7.70;2.58;;;;;;;;;;5056195;28;20119;-55
2023/12/28 00:02:29;;;;;;;6.03;3.15;;;;;;;;;;5068558;28;20053;-57
2023/12/28 00:04:56;;;;;;;4.53;2.60;;;;;;;;;;5068333;28;20126;-59
2023/12/28 00:07:22;;;;;;;4.55;2.70;;;;;;;;;;5068517;28;20049;-57
2023/12/28 00:09:49;;;;;;;6.47;2.92;;;;;;;;;;5067202;28;20122;-57
2023/12/28 00:12:18;;;;;;;8.55;3.22;;;;;;;;;;5068472;28;20052;-58
2023/12/28 00:14:44;;;;;;;4.35;2.50;;;;;;;;;;5068494;28;20106;-59
2023/12/28 00:17:11;;;;;;;4.47;2.85;;;;;;;;;;5062946;28;20061;-57
2023/12/28 00:19:37;;;;;;;5.03;2.85;;;;;;;;;;5052138;28;20049;-57
2023/12/28 00:22:04;;;;;;;8.93;3.35;;;;;;;;;;5062900;28;20096;-57
2023/12/28 00:24:30;;;;;;;5.20;2.58;;;;;;;;;;5062366;28;20135;-55
2023/12/28 00:26:57;;;;;;;5.90;2.90;;;;;;;;;;5060598;28;20049;-58
2023/12/28 00:29:23;;;;;;;9.70;3.42;;;;;;;;;;5065745;28;20549;-58
2023/12/28 00:31:49;;;;;;;8.85;3.72;;;;;;;;;;5066177;28;20134;-56
2023/12/28 00:34:16;;;;;;;4.95;3.05;;;;;;;;;;5068131;28;20048;-58
2023/12/28 00:36:42;;;;;;;5.20;2.85;;;;;;;;;;5065269;28;20057;-58
2023/12/28 00:39:09;;;;;;;6.28;2.78;;;;;;;;;;5068678;28;20053;-58
2023/12/28 00:41:35;;;;;;;6.63;2.85;;;;;;;;;;5067845;28;20053;-58
2023/12/28 00:44:02;;;;;;;3.60;2.53;;;;;;;;;;5068661;28;20167;-57
2023/12/28 00:46:28;;;;;;;4.63;2.90;;;;;;;;;;5067469;28;20131;-57
2023/12/28 00:48:54;;;;;;;8.95;2.90;;;;;;;;;;5068041;28;20053;-58
2023/12/28 00:51:21;;;;;;;6.35;2.78;;;;;;;;;;5068096;28;20080;-58
2023/12/28 00:53:48;;;;;;;6.22;2.40;;;;;;;;;;5068000;28;20079;-57
2023/12/28 00:56:14;;;;;;;5.22;3.17;;;;;;;;;;5068497;28;20053;-58
2023/12/28 00:58:43;;;;;;;4.75;2.90;;;;;;;;;;5057324;28;20057;-57
2023/12/28 01:01:09;;;;;;;5.70;2.67;;;;;;;;;;5065793;28;20471;-58
2023/12/28 01:03:36;;;;;;;5.95;3.15;;;;;;;;;;5065146;28;20060;-56
2023/12/28 01:06:04;;;;;;;4.07;2.67;;;;;;;;;;5065617;28;20073;-58
2023/12/28 01:08:30;;;;;;;6.32;2.58;;;;;;;;;;5063891;28;20057;-57
2023/12/28 01:10:57;;;;;;;4.47;2.67;;;;;;;;;;5064485;28;20052;-57
2023/12/28 01:13:23;;;;;;;5.70;2.92;;;;;;;;;;5064489;28;20528;-58
2023/12/28 01:15:50;;;;;;;6.07;2.65;;;;;;;;;;5064135;28;20068;-58
2023/12/28 01:18:16;;;;;;;4.47;2.63;;;;;;;;;;5064662;28;20450;-58
2023/12/28 01:20:43;;;;;;;7.47;2.90;;;;;;;;;;5063998;28;20049;-57
2023/12/28 01:23:09;;;;;;;5.53;2.70;;;;;;;;;;5062019;28;20057;-58
2023/12/28 01:25:36;;;;;;;5.68;2.63;;;;;;;;;;5065084;28;20543;-54
2023/12/28 01:28:02;;;;;;;5.40;2.70;;;;;;;;;;5053928;28;20037;-58
2023/12/28 01:30:29;;;;;;;7.55;2.60;;;;;;;;;;5060869;28;20049;-56
2023/12/28 01:32:56;;;;;;;5.57;2.40;;;;;;;;;;5055235;28;20149;-57
2023/12/28 01:35:22;;;;;;;4.53;2.30;;;;;;;;;;5055800;28;20060;-58
2023/12/28 01:37:49;;;;;;;4.10;2.25;;;;;;;;;;5054845;28;20049;-58
2023/12/28 01:40:17;;;;;;;8.40;3.08;;;;;;;;;;5061592;28;20053;-57
2023/12/28 01:42:44;;;;;;;3.90;2.40;;;;;;;;;;5064087;28;20099;-56
2023/12/28 01:45:11;;;;;;;4.82;2.50;;;;;;;;;;5062805;28;20417;-58
2023/12/28 01:47:37;;;;;;;5.00;2.03;;;;;;;;;;5064091;28;20542;-58
2023/12/28 01:50:06;;;;;;;7.43;2.17;;;;;;;;;;5064691;28;20057;-57
2023/12/28 01:52:32;;;;;;;4.97;2.55;;;;;;;;;;5063224;28;20045;-58
2023/12/28 01:54:59;;;;;;;8.13;3.05;;;;;;;;;;5061190;28;20172;-58
2023/12/28 01:57:25;;;;;;;6.03;2.47;;;;;;;;;;5051207;28;20100;-58
2023/12/28 01:59:52;;;;;;;7.75;3.90;;;;;;;;;;5064351;28;20100;-58
2023/12/28 02:02:19;;;;;;;8.18;2.70;;;;;;;;;;5062018;28;20119;-57
2023/12/28 02:04:45;;;;;;;8.90;2.80;;;;;;;;;;5063440;28;20150;-55
2023/12/28 02:07:12;;;;;;;9.18;2.83;;;;;;;;;;5063810;28;20114;-58
2023/12/28 02:09:39;;;;;;;6.53;3.00;;;;;;;;;;5059153;28;20060;-56
2023/12/28 02:12:06;;;;;;;4.10;2.58;;;;;;;;;;5061190;28;20056;-56
2023/12/28 02:14:32;;;;;;;5.78;2.10;;;;;;;;;;5062640;28;20049;-55
2023/12/28 02:17:14;;;;;;;4.78;2.33;;;;;;;;;;5063118;28;20053;-58
2023/12/28 02:19:44;;;;;;;9.68;3.05;;;;;;;;;;5062626;28;20104;-58
2023/12/28 02:22:13;;;;;;;3.75;2.63;;;;;;;;;;5063421;28;20623;-58
2023/12/28 02:24:55;;;;;;;4.82;2.80;;;;;;;;;;5063216;28;20123;-58
2023/12/28 02:27:21;;;;;;;7.38;2.75;;;;;;;;;;5060953;28;20057;-58
2023/12/28 02:29:48;;;;;;;5.07;2.70;;;;;;;;;;5062578;28;20053;-58
2023/12/28 02:32:15;;;;;;;7.63;2.47;;;;;;;;;;5062213;28;20665;-56
2023/12/28 02:34:43;;;;;;;5.75;2.22;;;;;;;;;;5062981;28;20515;-58
2023/12/28 02:37:12;;;;;;;14.10;2.75;;;;;;;;;;5062680;28;20052;-58
2023/12/28 02:39:38;;;;;;;5.32;2.20;;;;;;;;;;5051889;28;20095;-58
2023/12/28 02:42:05;;;;;;;5.72;2.20;;;;;;;;;;5059947;28;20063;-55
2023/12/28 02:44:31;;;;;;;4.72;2.45;;;;;;;;;;5056014;28;20158;-57
2023/12/28 02:46:58;;;;;;;4.68;2.15;;;;;;;;;;5061098;28;20049;-57
2023/12/28 02:49:24;;;;;;;5.18;2.25;;;;;;;;;;5063031;28;20528;-56
2023/12/28 02:51:50;;;;;;;8.23;2.00;;;;;;;;;;5061992;28;20151;-58
2023/12/28 02:54:17;;;;;;;3.85;1.90;;;;;;;;;;5061871;28;20048;-57
2023/12/28 02:56:43;;;;;;;8.57;2.50;;;;;;;;;;5062308;28;20053;-58
2023/12/28 02:59:10;;;;;;;4.85;2.00;;;;;;;;;;5062504;28;20127;-57
2023/12/28 03:01:37;;;;;;;7.55;2.40;;;;;;;;;;5061678;28;20052;-55
2023/12/28 03:04:03;;;;;;;11.95;2.78;;;;;;;;;;5059542;28;20053;-58
2023/12/28 03:06:29;;;;;;;8.70;2.15;;;;;;;;;;5062333;28;20052;-58
2023/12/28 03:08:56;;;;;;;9.35;2.65;;;;;;;;;;5062125;28;20052;-58
2023/12/28 03:11:23;;;;;;;6.20;2.30;;;;;;;;;;5057905;28;20103;-56
2023/12/28 03:13:49;;;;;;;6.53;1.65;;;;;;;;;;5061529;28;20110;-57
2023/12/28 03:16:15;;;;;;;9.13;2.00;;;;;;;;;;5063402;28;20059;-58
2023/12/28 03:18:42;;;;;;;6.63;3.22;;;;;;;;;;5062331;28;20132;-59
2023/12/28 03:21:08;;;;;;;6.38;2.00;;;;;;;;;;5062259;28;20053;-58
2023/12/28 03:23:35;;;;;;;7.05;1.75;;;;;;;;;;5061989;28;20087;-57
2023/12/28 03:26:01;;;;;;;6.93;2.33;;;;;;;;;;5061197;28;20049;-57
2023/12/28 03:28:28;;;;;;;5.45;2.08;;;;;;;;;;5061436;28;20131;-58
2023/12/28 03:30:54;;;;;;;9.30;2.92;;;;;;;;;;5060818;28;20060;-58
2023/12/28 03:33:20;;;;;;;8.93;3.00;;;;;;;;;;5062132;28;20646;-56
2023/12/28 03:35:47;;;;;;;4.90;1.67;;;;;;;;;;5061885;28;20084;-58
2023/12/28 03:38:13;;;;;;;5.82;2.33;;;;;;;;;;5059657;28;20528;-58
2023/12/28 03:40:40;;;;;;;5.53;2.33;;;;;;;;;;5062098;28;20055;-58
2023/12/28 03:43:06;;;;;;;5.05;1.98;;;;;;;;;;5061266;28;20084;-56
2023/12/28 03:45:33;;;;;;;7.25;2.65;;;;;;;;;;5061688;28;20065;-58
2023/12/28 03:47:59;;;;;;;8.40;2.17;;;;;;;;;;5062388;28;20103;-57
2023/12/28 03:50:26;;;;;;;5.32;2.30;;;;;;;;;;5061925;28;20057;-58
2023/12/28 03:52:53;;;;;;;3.80;2.08;;;;;;;;;;5061584;28;20049;-57
2023/12/28 03:55:19;;;;;;;6.18;2.15;;;;;;;;;;5059596;28;20057;-58
2023/12/28 03:57:46;;;;;;;10.02;2.20;;;;;;;;;;5062030;28;20195;-58
2023/12/28 04:00:14;;;;;;;6.28;1.95;;;;;;;;;;5062197;28;20464;-58
2023/12/28 04:02:41;;;;;;;5.53;2.05;;;;;;;;;;5061857;28;20079;-57
2023/12/28 04:05:08;;;;;;;6.55;2.22;;;;;;;;;;5061468;28;20412;-57
2023/12/28 04:07:34;;;;;;;10.35;2.05;;;;;;;;;;5059404;28;20053;-56
2023/12/28 04:10:01;;;;;;;8.73;2.13;;;;;;;;;;5061305;28;20491;-57
2023/12/28 04:12:28;;;;;;;6.25;1.88;;;;;;;;;;5061971;28;20131;-57
2023/12/28 04:14:54;;;;;;;5.53;1.92;;;;;;;;;;5062745;28;21001;-56
2023/12/28 04:17:20;;;;;;;10.32;2.08;;;;;;;;;;5062742;28;20084;-57
2023/12/28 04:19:47;;;;;;;3.42;1.83;;;;;;;;;;5063101;28;20049;-58
2023/12/28 04:22:14;;;;;;;9.18;2.17;;;;;;;;;;5062266;28;20979;-57
2023/12/28 04:24:40;;;;;;;10.95;2.70;;;;;;;;;;5061474;28;20534;-57
2023/12/28 04:27:07;;;;;;;6.20;1.88;;;;;;;;;;5060031;28;20101;-58
2023/12/28 04:29:34;;;;;;;7.65;2.08;;;;;;;;;;5058426;28;20061;-56
2023/12/28 04:32:01;;;;;;;4.43;2.13;;;;;;;;;;5060864;28;20644;-58
2023/12/28 04:34:28;;;;;;;9.88;2.33;;;;;;;;;;5060352;28;20060;-57
2023/12/28 04:36:54;;;;;;;8.27;2.05;;;;;;;;;;5060752;28;20061;-58
2023/12/28 04:39:21;;;;;;;6.95;2.45;;;;;;;;;;5062942;28;20053;-58
2023/12/28 04:41:47;;;;;;;7.82;2.00;;;;;;;;;;5065650;28;20053;-57
2023/12/28 04:44:14;;;;;;;5.30;2.08;;;;;;;;;;5063461;28;20049;-57
2023/12/28 04:46:42;;;;;;;8.52;2.13;;;;;;;;;;5065101;28;20570;-57
2023/12/28 04:49:10;;;;;;;8.82;2.35;;;;;;;;;;5064843;28;20165;-58
2023/12/28 04:51:41;;;;;;;6.22;2.03;;;;;;;;;;5064345;28;20053;-55
2023/12/28 04:54:08;;;;;;;8.48;2.00;;;;;;;;;;5062699;28;20139;-58
2023/12/28 04:56:34;;;;;;;8.75;2.10;;;;;;;;;;5064482;28;20145;-58
2023/12/28 04:59:00;;;;;;;6.72;2.22;;;;;;;;;;5063484;28;20427;-58
2023/12/28 05:01:31;;;;;;;8.48;2.15;;;;;;;;;;5063936;28;20057;-58
2023/12/28 05:03:57;;;;;;;9.40;2.45;;;;;;;;;;5064129;28;20107;-57
2023/12/28 05:06:27;;;;;;;15.02;2.95;;;;;;;;;;5063872;28;20053;-58
2023/12/28 05:08:53;;;;;;;6.20;1.88;;;;;;;;;;5060937;28;20148;-58
2023/12/28 05:11:19;;;;;;;4.95;1.70;;;;;;;;;;5064940;28;20135;-58
2023/12/28 05:13:46;;;;;;;6.65;1.92;;;;;;;;;;5064871;28;20080;-58
2023/12/28 05:16:12;;;;;;;4.95;1.83;;;;;;;;;;5063869;28;20147;-57
2023/12/28 05:18:38;;;;;;;7.47;2.00;;;;;;;;;;5064425;28;20045;-58
2023/12/28 05:21:05;;;;;;;14.98;2.30;;;;;;;;;;5063245;28;20107;-58
2023/12/28 05:23:31;;;;;;;8.52;1.98;;;;;;;;;;5064222;28;20056;-57
2023/12/28 05:25:58;;;;;;;7.43;2.10;;;;;;;;;;5078867;28;20044;-58
2023/12/28 05:28:24;;;;;;;9.07;2.30;;;;;;;;;;5070823;28;20052;-56
2023/12/28 05:30:50;;;;;;;10.98;2.15;;;;;;;;;;5063947;28;20045;-57
2023/12/28 05:33:17;;;;;;;12.15;2.10;;;;;;;;;;5062101;28;20052;-57
2023/12/28 05:35:43;;;;;;;14.57;2.40;;;;;;;;;;5063263;28;20060;-58
2023/12/28 05:38:10;;;;;;;8.82;1.90;;;;;;;;;;5063240;28;20053;-58
2023/12/28 05:40:36;;;;;;;11.50;3.00;;;;;;;;;;5063798;28;20053;-57
2023/12/28 05:43:03;;;;;;;11.65;1.80;;;;;;;;;;5063766;28;20541;-58
2023/12/28 05:45:29;;;;;;;17.17;2.35;;;;;;;;;;5062934;28;20084;-58
2023/12/28 05:47:56;;;;;;;15.27;2.45;;;;;;;;;;5063579;28;20053;-58
2023/12/28 05:50:23;;;;;;;7.88;1.63;;;;;;;;;;5063499;28;20080;-56
2023/12/28 05:52:49;;;;;;;15.80;2.28;;;;;;;;;;5063632;28;20053;-56
2023/12/28 05:55:15;;;;;;;14.35;2.90;;;;;;;;;;5064611;28;20052;-56
2023/12/28 05:57:42;;;;;;;8.05;1.75;;;;;;;;;;5063084;28;20366;-57
2023/12/28 06:00:09;;;;;;;10.55;2.03;;;;;;;;;;5062710;28;20482;-58
2023/12/28 06:02:36;;;;;;;6.30;2.08;;;;;;;;;;5057064;28;20073;-55
2023/12/28 06:05:02;;;;;;;7.35;1.92;;;;;;;;;;5062604;28;20073;-57
2023/12/28 06:07:29;;;;;;;11.25;2.08;;;;;;;;;;5063530;28;20048;-59
2023/12/28 06:09:55;;;;;;;8.43;2.10;;;;;;;;;;5064343;28;20064;-56
2023/12/28 06:12:22;;;;;;;9.77;1.80;;;;;;;;;;5062876;28;20053;-58
2023/12/28 06:14:48;;;;;;;14.55;2.53;;;;;;;;;;5059472;28;20543;-56
2023/12/28 06:17:15;;;;;;;9.73;2.38;;;;;;;;;;5063499;28;20049;-57
2023/12/28 06:19:41;;;;;;;10.43;2.38;;;;;;;;;;5062159;28;20132;-56
2023/12/28 06:22:08;;;;;;;12.73;2.50;;;;;;;;;;5062662;28;20491;-59
2023/12/28 06:24:37;;;;;;;9.13;1.58;;;;;;;;;;5063684;28;20057;-58
2023/12/28 06:27:03;;;;;;;10.45;3.25;;;;;;;;;;5062690;28;20051;-57
2023/12/28 06:29:30;;;;;;;11.00;2.28;;;;;;;;;;5062903;28;20081;-58
2023/12/28 06:31:56;;;;;;;14.57;3.03;;;;;;;;;;5061619;28;20151;-58
2023/12/28 06:34:23;;;;;;;15.63;3.28;;;;;;;;;;5061915;28;20053;-58
2023/12/28 06:36:49;;;;;;;11.68;2.53;;;;;;;;;;5062421;28;20068;-58
2023/12/28 06:39:16;;;;;;;11.73;2.25;;;;;;;;;;5063464;28;20049;-59
2023/12/28 06:41:42;;;;;;;14.18;2.90;;;;;;;;;;5061777;28;20063;-57
2023/12/28 06:44:11;;;;;;;9.60;2.33;;;;;;;;;;5060482;28;20144;-58
2023/12/28 06:46:37;;;;;;;8.65;2.00;;;;;;;;;;5062286;28;20057;-58
2023/12/28 06:49:05;;;;;;;17.17;2.85;;;;;;;;;;5061442;28;20055;-57
2023/12/28 06:51:36;;;;;;;13.32;2.55;;;;;;;;;;5062718;28;20068;-56
2023/12/28 06:54:03;;;;;;;11.05;2.72;;;;;;;;;;5062248;28;20119;-57
2023/12/28 06:56:29;;;;;;;11.60;2.30;;;;;;;;;;5062483;28;20056;-58
2023/12/28 06:58:56;;;;;;;14.27;2.53;;;;;;;;;;5062340;28;20053;-56
2023/12/28 07:01:22;;;;;;;9.90;2.15;;;;;;;;;;5060888;28;20053;-58
2023/12/28 07:03:49;;;;;;;18.10;2.83;;;;;;;;;;5060857;28;20083;-58
2023/12/28 07:06:15;;;;;;;8.35;2.55;;;;;;;;;;5062310;28;20061;-57
2023/12/28 07:08:42;;;;;;;13.20;2.65;;;;;;;;;;5062056;28;20089;-58
2023/12/28 07:11:11;;;;;;;9.93;2.13;;;;;;;;;;5060134;28;20044;-57
2023/12/28 07:13:38;;;;;;;10.15;2.10;;;;;;;;;;5063037;28;20526;-58
2023/12/28 07:16:04;;;;;;;13.95;2.85;;;;;;;;;;5059921;28;20231;-57
2023/12/28 07:18:31;;;;;;;11.43;2.33;;;;;;;;;;5061649;28;20053;-57
2023/12/28 07:20:58;;;;;;;11.65;2.35;;;;;;;;;;5063078;28;20426;-58
2023/12/28 07:23:24;;;;;;;14.25;2.72;;;;;;;;;;5061891;28;20048;-58
2023/12/28 07:25:51;;;;;;;13.02;2.70;;;;;;;;;;5061415;28;20049;-55
2023/12/28 07:28:18;;;;;;;10.13;2.60;;;;;;;;;;5061649;28;20599;-56
2023/12/28 07:30:44;;;;;;;19.35;4.32;;;;;;;;;;5056664;28;20048;-58
2023/12/28 07:33:11;;;;;;;13.43;2.50;;;;;;;;;;5060888;28;20079;-58
2023/12/28 07:35:37;;;;;;;16.35;3.42;;;;;;;;;;5061085;28;20057;-58
2023/12/28 07:38:04;;;;;;;16.35;3.00;;;;;;;;;;5061266;28;20144;-58
2023/12/28 07:40:30;;;;;;;9.18;2.53;;;;;;;;;;5061971;28;20171;-58
2023/12/28 07:42:56;;;;;;;19.88;3.38;;;;;;;;;;5060689;28;20897;-58
2023/12/28 07:45:24;;;;;;;26.33;3.40;;;;;;;;;;5062336;28;20506;-58
2023/12/28 07:47:51;;;;;;;17.15;2.97;;;;;;;;;;5061150;28;20108;-57
2023/12/28 07:50:19;;;;;;;20.80;2.80;;;;;;;;;;5062608;28;20057;-57
2023/12/28 07:52:46;;;;;;;17.52;2.60;;;;;;;;;;5061426;28;20057;-58
2023/12/28 07:55:13;;;;;;;14.30;3.45;;;;;;;;;;5062146;28;20057;-58
2023/12/28 07:57:40;;;;;;;16.27;2.83;;;;;;;;;;5061747;28;20115;-58
2023/12/28 08:00:08;;;;;;;14.75;3.58;;;;;;;;;;5060723;28;20135;-57
2023/12/28 08:02:34;;;;;;;20.20;2.95;;;;;;;;;;5060174;28;20056;-58
2023/12/28 08:05:00;;;;;;;15.35;3.22;;;;;;;;;;5058857;28;20064;-58
2023/12/28 08:07:27;;;;;;;14.68;2.70;;;;;;;;;;5061455;28;20057;-58
2023/12/28 08:09:53;;;;;;;8.80;2.45;;;;;;;;;;5056449;28;20136;-56
2023/12/28 08:12:21;;;;;;;13.15;2.78;;;;;;;;;;5055541;28;20061;-59
2023/12/28 08:14:47;;;;;;;9.43;1.80;;;;;;;;;;5058057;28;20057;-56
2023/12/28 08:17:14;;;;;;;10.13;1.98;;;;;;;;;;5057952;28;20547;-58
2023/12/28 08:19:40;;;;;;;13.23;2.33;;;;;;;;;;5058586;28;20164;-59
2023/12/28 08:22:07;;;;;;;13.50;2.15;;;;;;;;;;5056456;28;20055;-57
2023/12/28 08:24:34;;;;;;;16.48;2.88;;;;;;;;;;5058654;28;20057;-57
2023/12/28 08:27:00;;;;;;;13.95;2.20;;;;;;;;;;5058177;28;20184;-58
2023/12/28 08:29:27;;;;;;;15.18;2.90;;;;;;;;;;5057153;28;20042;-56
2023/12/28 08:31:53;;;;;;;16.13;3.17;;;;;;;;;;5058182;28;20588;-57
2023/12/28 08:34:20;;;;;;;13.90;2.20;;;;;;;;;;5058524;28;20562;-54
2023/12/28 08:36:46;;;;;;;13.60;2.50;;;;;;;;;;5059136;28;20049;-58
2023/12/28 08:39:13;;;;;;;15.27;3.30;;;;;;;;;;5060179;28;20060;-58
2023/12/28 08:41:39;;;;;;;13.18;2.17;;;;;;;;;;5064725;28;20063;-57
2023/12/28 08:44:06;;;;;;;16.02;2.90;;;;;;;;;;5064182;28;20219;-58
2023/12/28 08:46:32;;;;;;;10.57;3.30;;;;;;;;;;5065490;28;20057;-59
2023/12/28 08:48:59;;;;;;;13.73;2.83;;;;;;;;;;5065126;28;20045;-58
2023/12/28 08:51:25;;;;;;;16.33;3.15;;;;;;;;;;5064126;28;20080;-56
2023/12/28 08:53:52;;;;;;;17.15;2.80;;;;;;;;;;5060698;28;20063;-58
2023/12/28 08:56:20;;;;;;;17.50;3.17;;;;;;;;;;5065228;28;20527;-57
2023/12/28 08:58:47;;;;;;;14.13;3.25;;;;;;;;;;5063748;28;20514;-56
2023/12/28 09:01:31;;;;;;;14.02;3.45;;;;;;;;;;5065251;28;20063;-55
2023/12/28 09:03:58;;;;;;;20.58;3.63;;;;;;;;;;5062928;28;20088;-57
2023/12/28 09:06:25;;;;;;;13.68;2.20;;;;;;;;;;5064743;28;20586;-58
2023/12/28 09:08:52;;;;;;;14.55;2.10;;;;;;;;;;5064385;28;20073;-58
2023/12/28 09:11:19;;;;;;;14.65;2.70;;;;;;;;;;5064868;28;20515;-57
2023/12/28 09:13:45;;;;;;;20.55;3.55;;;;;;;;;;5063959;28;20527;-57
2023/12/28 09:16:13;;;;;;;16.10;2.85;;;;;;;;;;5064185;28;20045;-57
2023/12/28 09:18:40;;;;;;;21.05;3.22;;;;;;;;;;5064383;28;20137;-56
2023/12/28 09:21:07;;;;;;;12.30;2.72;;;;;;;;;;5060023;28;20435;-58
2023/12/28 09:23:34;;;;;;;13.35;2.85;;;;;;;;;;5064366;28;20115;-56
2023/12/28 09:26:03;;;;;;;15.27;3.13;;;;;;;;;;5062920;28;20060;-55
2023/12/28 09:28:29;;;;;;;16.27;2.30;;;;;;;;;;5061261;28;20079;-56
2023/12/28 09:30:56;;;;;;;10.38;2.78;;;;;;;;;;5064845;28;20482;-55
2023/12/28 09:33:23;;;;;;;15.60;2.22;;;;;;;;;;5063734;28;20079;-54
2023/12/28 09:35:49;;;;;;;17.60;3.30;;;;;;;;;;5063961;28;20443;-56
2023/12/28 09:38:18;;;;;;;11.90;2.92;;;;;;;;;;5063723;28;20055;-57
2023/12/28 09:40:45;;;;;;;13.10;2.75;;;;;;;;;;5064434;28;20056;-56
2023/12/28 09:43:27;;;;;;;19.75;3.45;;;;;;;;;;5062923;28;20152;-57
2023/12/28 09:45:54;;;;;;;15.73;3.15;;;;;;;;;;5063426;28;20060;-57
2023/12/28 09:48:24;;;;;;;15.48;3.03;;;;;;;;;;5063462;28;20072;-58
2023/12/28 09:50:54;;;;;;;14.48;3.13;;;;;;;;;;5064423;28;20049;-58
2023/12/28 09:53:24;;;;;;;16.95;3.17;;;;;;;;;;5064371;28;20060;-58
2023/12/28 09:55:51;;;;;;;16.10;2.75;;;;;;;;;;5063830;28;20104;-58
2023/12/28 09:58:19;;;;;;;16.98;2.70;;;;;;;;;;5064607;28;20053;-57
2023/12/28 10:00:46;;;;;;;19.08;3.05;;;;;;;;;;5063381;28;20052;-59
2023/12/28 10:03:13;;;;;;;16.50;3.33;;;;;;;;;;5063889;28;20172;-58
2023/12/28 10:05:46;;;;;;;15.38;2.40;;;;;;;;;;5063426;28;20075;-58
2023/12/28 10:08:13;;;;;;;13.52;3.17;;;;;;;;;;5058115;28;20115;-58
2023/12/28 10:10:41;;;;;;;17.20;3.05;;;;;;;;;;5063888;28;20466;-58
2023/12/28 10:13:08;;;;;;;16.35;3.33;;;;;;;;;;5063178;28;20085;-58
2023/12/28 10:15:37;;;;;;;10.10;2.55;;;;;;;;;;5064254;28;20049;-59
2023/12/28 10:18:04;;;;;;;15.40;2.95;;;;;;;;;;5063852;28;20057;-58
2023/12/28 10:20:31;;;;;;;15.45;3.08;;;;;;;;;;5063303;28;20744;-59
2023/12/28 10:22:58;;;;;;;19.48;2.83;;;;;;;;;;5063243;28;20508;-59
2023/12/28 10:25:25;;;;;;;13.82;2.90;;;;;;;;;;5063390;28;20057;-59
2023/12/28 10:27:53;;;;;;;22.52;4.30;;;;;;;;;;5077718;28;20057;-58
2023/12/28 10:30:20;;;;;;;19.63;3.58;;;;;;;;;;5071252;28;20045;-58
2023/12/28 10:32:47;;;;;;;19.58;4.55;;;;;;;;;;5062877;28;20053;-58
2023/12/28 10:35:14;;;;;;;16.52;3.38;;;;;;;;;;5062509;28;20045;-58
2023/12/28 10:37:44;;;;;;;11.50;3.60;;;;;;;;;;5062612;28;20049;-58
2023/12/28 10:40:15;;;;;;;14.10;2.88;;;;;;;;;;5062568;28;20048;-58
2023/12/28 10:43:02;;;;;;;14.43;3.08;;;;;;;;;;5062331;28;20617;-57
2023/12/28 10:45:31;;;;;;;17.15;3.13;;;;;;;;;;5067025;28;20534;-59
2023/12/28 10:48:04;;;;;;;19.75;2.88;;;;;;;;;;5053239;28;20100;-58
2023/12/28 10:50:32;;;;;;;15.90;2.70;;;;;;;;;;5062147;28;20049;-58
2023/12/28 10:53:04;;;;;;;18.83;3.45;;;;;;;;;;5061419;28;20060;-56
2023/12/28 10:55:31;;;;;;;20.60;3.45;;;;;;;;;;5062711;28;20115;-58
2023/12/28 10:58:01;;;;;;;16.42;3.50;;;;;;;;;;5062395;28;20052;-58
2023/12/28 11:00:31;;;;;;;18.73;3.15;;;;;;;;;;5063190;28;20053;-57
2023/12/28 11:03:02;;;;;;;16.48;2.88;;;;;;;;;;5062748;28;20558;-58
2023/12/28 11:05:30;;;;;;;12.10;2.70;;;;;;;;;;5062974;28;20053;-59
2023/12/28 11:07:58;;;;;;;18.73;3.42;;;;;;;;;;5063043;28;20089;-58
2023/12/28 11:10:24;;;;;;;17.50;3.45;;;;;;;;;;5062421;28;20107;-58
2023/12/28 11:12:51;;;;;;;19.05;2.83;;;;;;;;;;5064255;28;20060;-58
2023/12/28 11:15:18;;;;;;;11.52;2.35;;;;;;;;;;5062823;28;20052;-58
2023/12/28 11:17:45;;;;;;;10.93;2.95;;;;;;;;;;5062771;28;20107;-59
2023/12/28 11:20:12;;;;;;;18.38;2.92;;;;;;;;;;5054252;28;20627;-58
2023/12/28 11:22:39;;;;;;;17.88;3.28;;;;;;;;;;5062953;28;20140;-59
2023/12/28 11:25:05;;;;;;;16.25;3.17;;;;;;;;;;5062005;28;20107;-58
2023/12/28 11:27:36;;;;;;;17.50;2.75;;;;;;;;;;5062664;28;20084;-59
2023/12/28 11:30:06;;;;;;;18.80;2.95;;;;;;;;;;5062401;28;20103;-57
2023/12/28 11:32:33;;;;;;;13.52;2.90;;;;;;;;;;5073740;28;20064;-58
2023/12/28 11:35:00;;;;;;;25.10;3.45;;;;;;;;;;5063134;28;20500;-58
2023/12/28 11:37:29;;;;;;;12.68;2.22;;;;;;;;;;5062268;28;20080;-58
2023/12/28 11:39:57;;;;;;;13.77;2.28;;;;;;;;;;5058499;28;20114;-58
2023/12/28 11:42:24;;;;;;;17.05;4.28;;;;;;;;;;5062134;28;20052;-58
2023/12/28 11:44:55;;;;;;;11.43;2.50;;;;;;;;;;5062529;28;20048;-58
2023/12/28 11:47:23;;;;;;;10.82;2.85;;;;;;;;;;5057784;28;20487;-56
2023/12/28 11:49:54;;;;;;;10.68;2.83;;;;;;;;;;5063058;28;20049;-56
2023/12/28 11:52:24;;;;;;;16.30;3.13;;;;;;;;;;5062754;28;20053;-55
2023/12/28 11:54:51;;;;;;;14.43;2.60;;;;;;;;;;5056652;28;20064;-56
2023/12/28 11:57:18;;;;;;;14.63;2.67;;;;;;;;;;5064194;28;20490;-57
2023/12/28 11:59:45;;;;;;;18.58;3.42;;;;;;;;;;5062472;28;20053;-57
2023/12/28 12:02:11;;;;;;;15.57;2.83;;;;;;;;;;5061781;28;20060;-57
2023/12/28 12:04:38;;;;;;;14.43;3.15;;;;;;;;;;5061420;28;20053;-57
2023/12/28 12:07:04;;;;;;;21.25;3.47;;;;;;;;;;5056519;28;20166;-57
2023/12/28 12:09:34;;;;;;;18.17;3.08;;;;;;;;;;5058079;28;20072;-58
2023/12/28 12:12:01;;;;;;;16.05;3.05;;;;;;;;;;5046936;28;20143;-58
2023/12/28 12:14:28;;;;;;;20.00;3.00;;;;;;;;;;5053134;28;20057;-58
2023/12/28 12:16:58;;;;;;;18.77;3.40;;;;;;;;;;5062472;28;20060;-56
2023/12/28 12:19:25;;;;;;;15.35;3.28;;;;;;;;;;5063447;28;20049;-56
2023/12/28 12:21:53;;;;;;;18.30;3.15;;;;;;;;;;5061889;28;20049;-58
2023/12/28 12:24:20;;;;;;;12.50;2.95;;;;;;;;;;5061993;28;20496;-58
2023/12/28 12:26:46;;;;;;;20.15;3.95;;;;;;;;;;5061201;28;20052;-57
2023/12/28 12:29:14;;;;;;;13.90;2.88;;;;;;;;;;5053152;28;20045;-56
2023/12/28 12:31:41;;;;;;;13.30;2.63;;;;;;;;;;5059762;28;20081;-56
2023/12/28 12:34:09;;;;;;;20.15;3.63;;;;;;;;;;5061177;28;20060;-57
2023/12/28 12:36:36;;;;;;;12.45;2.63;;;;;;;;;;5060409;28;20550;-58
2023/12/28 12:39:05;;;;;;;23.40;3.88;;;;;;;;;;5061437;28;20053;-59
2023/12/28 12:41:33;;;;;;;11.02;2.25;;;;;;;;;;5061793;28;20056;-58
2023/12/28 12:44:00;;;;;;;19.63;3.38;;;;;;;;;;5059944;28;20056;-57
2023/12/28 12:46:26;;;;;;;10.88;3.20;;;;;;;;;;5061444;28;20114;-56
2023/12/28 12:48:56;;;;;;;18.52;2.85;;;;;;;;;;5061360;28;20816;-56
2023/12/28 12:51:24;;;;;;;15.18;3.15;;;;;;;;;;5061522;28;20499;-55
2023/12/28 12:53:55;;;;;;;18.42;2.65;;;;;;;;;;5059562;28;20053;-57
2023/12/28 12:56:22;;;;;;;14.07;3.13;;;;;;;;;;5061643;28;20053;-56
2023/12/28 12:58:48;;;;;;;10.82;2.50;;;;;;;;;;5056751;28;20060;-58
2023/12/28 13:01:15;;;;;;;19.58;2.70;;;;;;;;;;5064883;28;20507;-57
2023/12/28 13:03:41;;;;;;;18.95;3.42;;;;;;;;;;5055356;28;20057;-56
2023/12/28 13:06:12;;;;;;;23.45;4.10;;;;;;;;;;5062452;28;20172;-57
2023/12/28 13:08:38;;;;;;;22.02;3.35;;;;;;;;;;5064514;28;20064;-58
2023/12/28 13:11:06;;;;;;;19.13;3.38;;;;;;;;;;5065130;28;20057;-57
2023/12/28 13:13:36;;;;;;;14.77;3.53;;;;;;;;;;5064182;28;20057;-57
2023/12/28 13:16:03;;;;;;;16.55;2.97;;;;;;;;;;5063938;28;20053;-56
2023/12/28 13:18:29;;;;;;;15.38;3.33;;;;;;;;;;5065101;28;20067;-58
2023/12/28 13:20:56;;;;;;;12.75;2.78;;;;;;;;;;5063400;28;20138;-58
2023/12/28 13:23:23;;;;;;;9.93;2.22;;;;;;;;;;5064863;28;20061;-57
2023/12/28 13:25:51;;;;;;;16.45;3.30;;;;;;;;;;5063878;28;20049;-58
2023/12/28 13:28:18;;;;;;;13.10;3.17;;;;;;;;;;5064030;28;20053;-57
2023/12/28 13:30:44;;;;;;;17.55;3.58;;;;;;;;;;5064366;28;20056;-56
2023/12/28 13:33:11;;;;;;;16.77;3.40;;;;;;;;;;5064056;28;20555;-62
2023/12/28 13:35:38;;;;;;;20.70;3.67;;;;;;;;;;5063230;28;20057;-59
2023/12/28 13:38:04;;;;;;;23.25;4.40;;;;;;;;;;5064281;28;20518;-59
2023/12/28 13:40:31;;;;;;;15.13;2.60;;;;;;;;;;5064856;28;20527;-58
2023/12/28 13:42:57;;;;;;;17.35;3.47;;;;;;;;;;5064144;28;20053;-58
2023/12/28 13:45:24;;;;;;;10.82;2.35;;;;;;;;;;5064468;28;20077;-58
2023/12/28 13:47:51;;;;;;;11.80;2.60;;;;;;;;;;5064602;28;20056;-59
2023/12/28 13:50:17;;;;;;;15.80;3.25;;;;;;;;;;5063448;28;20061;-58
2023/12/28 13:52:43;;;;;;;15.15;3.33;;;;;;;;;;5064095;28;20053;-58
2023/12/28 13:55:11;;;;;;;16.02;2.67;;;;;;;;;;5064422;28;20049;-61
2023/12/28 13:57:38;;;;;;;13.82;3.22;;;;;;;;;;5063081;28;20049;-59
2023/12/28 14:00:05;;;;;;;22.20;3.67;;;;;;;;;;5064136;28;20060;-58
2023/12/28 14:02:32;;;;;;;16.55;3.15;;;;;;;;;;5063942;28;20057;-59
2023/12/28 14:04:58;;;;;;;13.98;2.53;;;;;;;;;;5063197;28;20053;-59
2023/12/28 14:07:25;;;;;;;16.95;2.67;;;;;;;;;;5062000;28;20067;-59
2023/12/28 14:09:52;;;;;;;21.13;4.07;;;;;;;;;;5062879;28;20049;-59
2023/12/28 14:12:18;;;;;;;20.90;3.58;;;;;;;;;;5062242;28;20123;-57
2023/12/28 14:14:45;;;;;;;13.95;3.10;;;;;;;;;;5062664;28;20547;-58
2023/12/28 14:17:11;;;;;;;10.70;2.42;;;;;;;;;;5063741;28;20458;-58
2023/12/28 14:19:38;;;;;;;16.08;2.45;;;;;;;;;;5062455;28;20083;-58
2023/12/28 14:22:05;;;;;;;14.68;2.95;;;;;;;;;;5063227;28;20064;-57
2023/12/28 14:24:32;;;;;;;16.65;3.13;;;;;;;;;;5063137;28;20057;-58
2023/12/28 14:26:59;;;;;;;22.60;4.30;;;;;;;;;;5063750;28;20057;-58
2023/12/28 14:29:26;;;;;;;14.52;2.65;;;;;;;;;;5063291;28;20055;-56
2023/12/28 14:31:53;;;;;;;12.75;2.78;;;;;;;;;;5062293;28;20053;-57
2023/12/28 14:34:19;;;;;;;21.77;3.67;;;;;;;;;;5062569;28;20164;-59